sensor_id;sensor_type;location;lat;lon;timestamp;P1;durP1;ratioP1;P2;durP2;ratioP2
22017;SDS011;11173;51.050;7.108;2023-09-18T00:02:16;2.35;;;1.60;;
22017;SDS011;11173;51.050;7.108;2023-09-18T00:12:16;2.45;;;2.03;;
22017;SDS011;11173;51.050;7.108;2023-09-18T00:22:16;2.03;;;1.90;;
22017;SDS011;11173;51.050;7.108;2023-09-18T00:32:17;2.30;;;1.70;;
22017;SDS011;11173;51.050;7.108;2023-09-18T00:42:17;2.55;;;1.90;;
22017;SDS011;11173;51.050;7.108;2023-09-18T00:52:18;1.92;;;1.83;;
22017;SDS011;11173;51.050;7.108;2023-09-18T01:02:20;4.00;;;2.00;;
22017;SDS011;11173;51.050;7.108;2023-09-18T01:12:26;1.30;;;1.20;;
22017;SDS011;11173;51.050;7.108;2023-09-18T01:22:33;1.65;;;1.55;;
22017;SDS011;11173;51.050;7.108;2023-09-18T01:32:34;1.45;;;1.15;;
22017;SDS011;11173;51.050;7.108;2023-09-18T01:42:37;1.75;;;1.65;;
22017;SDS011;11173;51.050;7.108;2023-09-18T01:52:39;1.67;;;1.58;;
22017;SDS011;11173;51.050;7.108;2023-09-18T02:02:39;1.92;;;1.50;;
22017;SDS011;11173;51.050;7.108;2023-09-18T02:12:40;2.13;;;1.45;;
22017;SDS011;11173;51.050;7.108;2023-09-18T02:22:40;1.38;;;1.27;;
22017;SDS011;11173;51.050;7.108;2023-09-18T02:32:41;1.50;;;1.05;;
22017;SDS011;11173;51.050;7.108;2023-09-18T02:42:42;3.58;;;1.23;;
22017;SDS011;11173;51.050;7.108;2023-09-18T02:52:42;1.15;;;0.93;;
22017;SDS011;11173;51.050;7.108;2023-09-18T03:02:42;1.00;;;0.80;;
22017;SDS011;11173;51.050;7.108;2023-09-18T03:12:43;0.40;;;0.40;;
22017;SDS011;11173;51.050;7.108;2023-09-18T03:22:43;0.50;;;0.50;;
22017;SDS011;11173;51.050;7.108;2023-09-18T03:32:44;0.32;;;0.32;;
22017;SDS011;11173;51.050;7.108;2023-09-18T03:42:45;0.65;;;0.65;;
22017;SDS011;11173;51.050;7.108;2023-09-18T03:52:46;0.38;;;0.38;;
22017;SDS011;11173;51.050;7.108;2023-09-18T04:02:47;0.52;;;0.30;;
22017;SDS011;11173;51.050;7.108;2023-09-18T04:12:47;0.30;;;0.30;;
22017;SDS011;11173;51.050;7.108;2023-09-18T04:22:48;0.50;;;0.50;;
22017;SDS011;11173;51.050;7.108;2023-09-18T04:33:27;0.63;;;0.60;;
22017;SDS011;11173;51.050;7.108;2023-09-18T04:43:29;0.50;;;0.50;;
22017;SDS011;11173;51.050;7.108;2023-09-18T04:53:30;0.82;;;0.70;;
22017;SDS011;11173;51.050;7.108;2023-09-18T05:03:35;2.85;;;0.70;;
22017;SDS011;11173;51.050;7.108;2023-09-18T05:13:35;0.93;;;0.63;;
22017;SDS011;11173;51.050;7.108;2023-09-18T05:23:36;0.50;;;0.47;;
22017;SDS011;11173;51.050;7.108;2023-09-18T05:33:36;0.65;;;0.40;;
22017;SDS011;11173;51.050;7.108;2023-09-18T05:43:36;0.50;;;0.45;;
22017;SDS011;11173;51.050;7.108;2023-09-18T05:53:37;0.32;;;0.30;;
22017;SDS011;11173;51.050;7.108;2023-09-18T06:03:38;0.50;;;0.50;;
22017;SDS011;11173;51.050;7.108;2023-09-18T06:13:38;0.30;;;0.30;;
22017;SDS011;11173;51.050;7.108;2023-09-18T06:23:38;0.63;;;0.25;;
22017;SDS011;11173;51.050;7.108;2023-09-18T06:33:39;0.30;;;0.30;;
22017;SDS011;11173;51.050;7.108;2023-09-18T06:43:42;0.75;;;0.40;;
22017;SDS011;11173;51.050;7.108;2023-09-18T06:53:43;1.90;;;0.50;;
22017;SDS011;11173;51.050;7.108;2023-09-18T07:03:44;0.30;;;0.30;;
22017;SDS011;11173;51.050;7.108;2023-09-18T07:13:44;0.40;;;0.40;;
22017;SDS011;11173;51.050;7.108;2023-09-18T07:23:45;0.40;;;0.40;;
22017;SDS011;11173;51.050;7.108;2023-09-18T07:33:46;0.40;;;0.40;;
22017;SDS011;11173;51.050;7.108;2023-09-18T07:43:46;0.15;;;0.15;;
22017;SDS011;11173;51.050;7.108;2023-09-18T07:53:46;0.25;;;0.20;;
22017;SDS011;11173;51.050;7.108;2023-09-18T08:03:47;0.35;;;0.30;;
22017;SDS011;11173;51.050;7.108;2023-09-18T08:13:47;0.20;;;0.20;;
22017;SDS011;11173;51.050;7.108;2023-09-18T08:23:48;0.95;;;0.28;;
22017;SDS011;11173;51.050;7.108;2023-09-18T08:33:48;0.45;;;0.30;;
22017;SDS011;11173;51.050;7.108;2023-09-18T08:43:49;0.10;;;0.10;;
22017;SDS011;11173;51.050;7.108;2023-09-18T08:53:50;0.08;;;0.08;;
22017;SDS011;11173;51.050;7.108;2023-09-18T09:03:52;0.10;;;0.10;;
22017;SDS011;11173;51.050;7.108;2023-09-18T09:24:10;0.20;;;0.20;;
22017;SDS011;11173;51.050;7.108;2023-09-18T09:34:26;0.20;;;0.20;;
22017;SDS011;11173;51.050;7.108;2023-09-18T09:44:27;0.30;;;0.30;;
22017;SDS011;11173;51.050;7.108;2023-09-18T09:54:32;0.40;;;0.25;;
22017;SDS011;11173;51.050;7.108;2023-09-18T10:04:40;0.20;;;0.20;;
22017;SDS011;11173;51.050;7.108;2023-09-18T10:14:43;0.40;;;0.35;;
22017;SDS011;11173;51.050;7.108;2023-09-18T10:24:50;0.15;;;0.15;;
22017;SDS011;11173;51.050;7.108;2023-09-18T10:34:53;0.40;;;0.35;;
22017;SDS011;11173;51.050;7.108;2023-09-18T10:44:54;0.85;;;0.40;;
22017;SDS011;11173;51.050;7.108;2023-09-18T10:54:55;0.20;;;0.20;;
22017;SDS011;11173;51.050;7.108;2023-09-18T11:04:55;0.50;;;0.30;;
22017;SDS011;11173;51.050;7.108;2023-09-18T11:14:57;0.20;;;0.20;;
22017;SDS011;11173;51.050;7.108;2023-09-18T11:25:28;0.30;;;0.30;;
22017;SDS011;11173;51.050;7.108;2023-09-18T11:35:51;1.15;;;0.30;;
22017;SDS011;11173;51.050;7.108;2023-09-18T11:45:53;0.17;;;0.17;;
22017;SDS011;11173;51.050;7.108;2023-09-18T11:55:55;0.30;;;0.30;;
22017;SDS011;11173;51.050;7.108;2023-09-18T12:06:00;0.85;;;0.30;;
22017;SDS011;11173;51.050;7.108;2023-09-18T12:16:02;0.55;;;0.40;;
22017;SDS011;11173;51.050;7.108;2023-09-18T12:26:05;0.20;;;0.20;;
22017;SDS011;11173;51.050;7.108;2023-09-18T12:36:08;0.75;;;0.55;;
22017;SDS011;11173;51.050;7.108;2023-09-18T12:46:08;0.22;;;0.22;;
22017;SDS011;11173;51.050;7.108;2023-09-18T12:56:10;0.30;;;0.30;;
22017;SDS011;11173;51.050;7.108;2023-09-18T13:06:16;0.55;;;0.50;;
22017;SDS011;11173;51.050;7.108;2023-09-18T13:16:18;0.30;;;0.30;;
22017;SDS011;11173;51.050;7.108;2023-09-18T13:26:22;0.43;;;0.30;;
22017;SDS011;11173;51.050;7.108;2023-09-18T13:36:22;0.45;;;0.30;;
22017;SDS011;11173;51.050;7.108;2023-09-18T13:46:23;0.40;;;0.40;;
22017;SDS011;11173;51.050;7.108;2023-09-18T13:56:23;0.37;;;0.30;;
22017;SDS011;11173;51.050;7.108;2023-09-18T14:06:28;0.50;;;0.38;;
22017;SDS011;11173;51.050;7.108;2023-09-18T14:16:28;0.63;;;0.25;;
22017;SDS011;11173;51.050;7.108;2023-09-18T14:26:28;0.68;;;0.40;;
22017;SDS011;11173;51.050;7.108;2023-09-18T14:36:30;0.57;;;0.50;;
22017;SDS011;11173;51.050;7.108;2023-09-18T14:46:31;0.50;;;0.38;;
22017;SDS011;11173;51.050;7.108;2023-09-18T14:56:35;0.30;;;0.30;;
22017;SDS011;11173;51.050;7.108;2023-09-18T15:06:35;0.40;;;0.40;;
22017;SDS011;11173;51.050;7.108;2023-09-18T15:16:36;0.47;;;0.30;;
22017;SDS011;11173;51.050;7.108;2023-09-18T15:26:36;0.52;;;0.30;;
22017;SDS011;11173;51.050;7.108;2023-09-18T15:36:37;0.28;;;0.28;;
22017;SDS011;11173;51.050;7.108;2023-09-18T15:46:37;0.38;;;0.25;;
22017;SDS011;11173;51.050;7.108;2023-09-18T15:56:38;0.40;;;0.40;;
22017;SDS011;11173;51.050;7.108;2023-09-18T16:06:40;0.40;;;0.40;;
22017;SDS011;11173;51.050;7.108;2023-09-18T16:16:41;1.42;;;0.40;;
22017;SDS011;11173;51.050;7.108;2023-09-18T16:26:42;1.48;;;0.32;;
22017;SDS011;11173;51.050;7.108;2023-09-18T16:36:42;0.60;;;0.50;;
22017;SDS011;11173;51.050;7.108;2023-09-18T16:46:43;0.20;;;0.20;;
22017;SDS011;11173;51.050;7.108;2023-09-18T16:56:43;0.40;;;0.40;;
22017;SDS011;11173;51.050;7.108;2023-09-18T17:06:44;0.60;;;0.43;;
22017;SDS011;11173;51.050;7.108;2023-09-18T17:16:44;0.20;;;0.20;;
22017;SDS011;11173;51.050;7.108;2023-09-18T17:26:44;1.00;;;0.40;;
22017;SDS011;11173;51.050;7.108;2023-09-18T17:36:45;0.22;;;0.22;;
22017;SDS011;11173;51.050;7.108;2023-09-18T17:46:45;0.40;;;0.40;;
22017;SDS011;11173;51.050;7.108;2023-09-18T17:56:47;0.30;;;0.30;;
22017;SDS011;11173;51.050;7.108;2023-09-18T18:06:47;0.45;;;0.45;;
22017;SDS011;11173;51.050;7.108;2023-09-18T18:16:48;0.40;;;0.40;;
22017;SDS011;11173;51.050;7.108;2023-09-18T18:26:49;4.57;;;0.60;;
22017;SDS011;11173;51.050;7.108;2023-09-18T18:36:52;1.40;;;0.60;;
22017;SDS011;11173;51.050;7.108;2023-09-18T18:46:52;0.60;;;0.52;;
22017;SDS011;11173;51.050;7.108;2023-09-18T18:56:53;0.30;;;0.30;;
22017;SDS011;11173;51.050;7.108;2023-09-18T19:06:53;0.20;;;0.20;;
22017;SDS011;11173;51.050;7.108;2023-09-18T19:16:53;0.15;;;0.10;;
22017;SDS011;11173;51.050;7.108;2023-09-18T19:26:54;0.20;;;0.20;;
22017;SDS011;11173;51.050;7.108;2023-09-18T19:36:54;0.10;;;0.10;;
22017;SDS011;11173;51.050;7.108;2023-09-18T19:46:55;0.15;;;0.15;;
22017;SDS011;11173;51.050;7.108;2023-09-18T19:56:57;0.45;;;0.35;;
22017;SDS011;11173;51.050;7.108;2023-09-18T20:06:58;0.30;;;0.20;;
22017;SDS011;11173;51.050;7.108;2023-09-18T20:16:58;0.20;;;0.20;;
22017;SDS011;11173;51.050;7.108;2023-09-18T20:26:59;0.30;;;0.30;;
22017;SDS011;11173;51.050;7.108;2023-09-18T20:37:00;0.20;;;0.20;;
22017;SDS011;11173;51.050;7.108;2023-09-18T20:47:00;0.10;;;0.10;;
22017;SDS011;11173;51.050;7.108;2023-09-18T20:57:00;0.10;;;0.10;;
22017;SDS011;11173;51.050;7.108;2023-09-18T21:07:01;0.10;;;0.10;;
22017;SDS011;11173;51.050;7.108;2023-09-18T21:17:01;0.20;;;0.10;;
22017;SDS011;11173;51.050;7.108;2023-09-18T21:27:03;0.50;;;0.40;;
22017;SDS011;11173;51.050;7.108;2023-09-18T21:37:03;0.20;;;0.20;;
22017;SDS011;11173;51.050;7.108;2023-09-18T21:47:04;0.10;;;0.10;;
22017;SDS011;11173;51.050;7.108;2023-09-18T21:57:10;0.57;;;0.10;;
22017;SDS011;11173;51.050;7.108;2023-09-18T22:07:10;0.20;;;0.20;;
22017;SDS011;11173;51.050;7.108;2023-09-18T22:17:12;0.50;;;0.30;;
22017;SDS011;11173;51.050;7.108;2023-09-18T22:27:12;0.98;;;0.63;;
22017;SDS011;11173;51.050;7.108;2023-09-18T22:37:16;1.13;;;0.73;;
22017;SDS011;11173;51.050;7.108;2023-09-18T22:57:57;0.82;;;0.80;;
22017;SDS011;11173;51.050;7.108;2023-09-18T23:08:00;0.75;;;0.60;;
22017;SDS011;11173;51.050;7.108;2023-09-18T23:18:07;1.45;;;0.77;;
22017;SDS011;11173;51.050;7.108;2023-09-18T23:28:07;1.73;;;0.70;;
22017;SDS011;11173;51.050;7.108;2023-09-18T23:38:08;1.30;;;0.70;;
22017;SDS011;11173;51.050;7.108;2023-09-18T23:48:11;0.98;;;0.85;;
22017;SDS011;11173;51.050;7.108;2023-09-18T23:58:13;1.67;;;1.02;;
